Time;durP1;ratioP1;P1;durP2;ratioP2;P2;SDS_P1;SDS_P2;PMS_P1;PMS_P2;Temp;Humidity;BMP_temperature;BMP_pressure;BME280_temperature;BME280_humidity;BME280_pressure;Samples;Min_cycle;Max_cycle;Signal;HPM_P1;HPM_P2
2023/05/19 00:01:27;;;;;;;2.57;1.80;;;;;;;;;;5012847;28;20239;-76
2023/05/19 00:03:57;;;;;;;3.23;1.67;;;;;;;;;;5016018;28;20219;-76
2023/05/19 00:06:28;;;;;;;3.90;2.00;;;;;;;;;;4983176;28;20236;-76
2023/05/19 00:09:08;;;;;;;3.53;1.90;;;;;;;;;;5027239;28;20258;-76
2023/05/19 00:11:37;;;;;;;5.07;1.87;;;;;;;;;;4972488;28;20208;-75
2023/05/19 00:14:04;;;;;;;3.97;1.97;;;;;;;;;;4999979;28;20231;-76
2023/05/19 00:16:35;;;;;;;3.40;1.90;;;;;;;;;;5001641;28;20697;-76
2023/05/19 00:19:08;;;;;;;5.03;2.00;;;;;;;;;;5014615;28;20223;-76
2023/05/19 00:21:37;;;;;;;5.20;2.30;;;;;;;;;;5007014;28;20223;-76
2023/05/19 00:24:05;;;;;;;3.87;2.10;;;;;;;;;;5012804;28;20288;-76
2023/05/19 00:26:36;;;;;;;4.30;2.13;;;;;;;;;;4983644;28;20231;-76
2023/05/19 00:29:04;;;;;;;2.33;1.90;;;;;;;;;;5031689;28;20229;-78
2023/05/19 00:31:32;;;;;;;3.83;2.07;;;;;;;;;;5017390;28;20242;-76
2023/05/19 00:34:00;;;;;;;4.07;2.00;;;;;;;;;;5012583;28;20266;-76
2023/05/19 00:36:28;;;;;;;5.20;1.97;;;;;;;;;;5015707;28;20224;-75
2023/05/19 00:38:59;;;;;;;3.63;1.87;;;;;;;;;;5007269;28;20221;-75
2023/05/19 00:41:25;;;;;;;3.00;1.97;;;;;;;;;;5028406;28;20271;-77
2023/05/19 00:43:53;;;;;;;4.57;2.03;;;;;;;;;;5025261;28;20211;-77
2023/05/19 00:46:21;;;;;;;3.33;2.20;;;;;;;;;;5032533;28;20602;-77
2023/05/19 00:48:49;;;;;;;3.43;2.03;;;;;;;;;;5027760;28;20224;-77
2023/05/19 00:51:19;;;;;;;3.47;2.20;;;;;;;;;;5016420;28;20217;-77
2023/05/19 00:53:49;;;;;;;4.53;2.10;;;;;;;;;;5037861;28;20215;-77
2023/05/19 00:56:15;;;;;;;2.97;2.00;;;;;;;;;;5030635;28;20224;-77
2023/05/19 00:58:43;;;;;;;3.33;1.93;;;;;;;;;;5001879;28;20242;-78
2023/05/19 01:01:16;;;;;;;6.67;2.33;;;;;;;;;;4992274;28;20260;-77
2023/05/19 01:03:47;;;;;;;4.10;2.53;;;;;;;;;;5021492;28;20220;-77
2023/05/19 01:06:19;;;;;;;3.40;1.90;;;;;;;;;;5012216;28;20221;-77
2023/05/19 01:08:45;;;;;;;3.20;2.10;;;;;;;;;;5004688;28;20704;-77
2023/05/19 01:11:13;;;;;;;2.67;2.00;;;;;;;;;;5014837;28;20292;-77
2023/05/19 01:13:38;;;;;;;4.17;1.90;;;;;;;;;;5018074;28;20615;-77
2023/05/19 01:16:22;;;;;;;3.33;1.83;;;;;;;;;;5031207;28;20220;-77
2023/05/19 01:18:56;;;;;;;3.47;2.13;;;;;;;;;;5044166;28;20293;-77
2023/05/19 01:21:47;;;;;;;5.00;2.07;;;;;;;;;;5022826;28;20306;-77
2023/05/19 01:24:32;;;;;;;3.43;2.00;;;;;;;;;;5026807;28;20248;-78
2023/05/19 01:27:11;;;;;;;5.13;2.30;;;;;;;;;;5044999;28;20758;-77
2023/05/19 01:29:41;;;;;;;4.00;1.90;;;;;;;;;;4998821;28;20226;-77
2023/05/19 01:32:06;;;;;;;3.70;2.20;;;;;;;;;;5014372;28;20225;-78
2023/05/19 01:34:34;;;;;;;4.40;2.20;;;;;;;;;;5012476;28;20224;-77
2023/05/19 01:37:02;;;;;;;4.23;2.00;;;;;;;;;;4999402;28;20220;-77
2023/05/19 01:39:32;;;;;;;4.93;2.50;;;;;;;;;;5006960;28;20303;-77
2023/05/19 01:41:57;;;;;;;4.50;2.20;;;;;;;;;;4999549;28;20227;-77
2023/05/19 01:44:25;;;;;;;4.13;2.10;;;;;;;;;;4996172;28;20216;-77
2023/05/19 01:46:53;;;;;;;4.13;2.30;;;;;;;;;;5021291;28;20225;-77
2023/05/19 01:49:18;;;;;;;3.43;2.40;;;;;;;;;;4985025;28;20273;-77
2023/05/19 01:51:47;;;;;;;4.20;2.00;;;;;;;;;;4997645;28;20731;-77
2023/05/19 01:54:17;;;;;;;6.23;2.43;;;;;;;;;;5018371;28;20236;-77
2023/05/19 01:56:56;;;;;;;4.67;2.37;;;;;;;;;;5014190;28;20223;-78
2023/05/19 02:00:12;;;;;;;3.93;2.07;;;;;;;;;;4998921;28;20250;-77
2023/05/19 02:03:09;;;;;;;5.33;2.20;;;;;;;;;;4996860;28;20219;-77
2023/05/19 02:05:55;;;;;;;5.17;2.27;;;;;;;;;;5023669;28;20236;-77
2023/05/19 02:08:29;;;;;;;3.90;2.37;;;;;;;;;;5027262;28;20232;-77
2023/05/19 02:11:03;;;;;;;3.67;2.30;;;;;;;;;;5013066;28;20226;-77
2023/05/19 02:13:32;;;;;;;4.83;2.30;;;;;;;;;;5004397;28;20241;-78
2023/05/19 02:16:02;;;;;;;3.87;2.53;;;;;;;;;;5011058;28;20239;-76
2023/05/19 02:18:29;;;;;;;4.10;2.10;;;;;;;;;;4990352;28;20228;-77
2023/05/19 02:21:00;;;;;;;3.63;2.33;;;;;;;;;;5030992;28;20217;-77
2023/05/19 02:23:25;;;;;;;5.00;2.23;;;;;;;;;;5004619;28;20616;-77
2023/05/19 02:25:51;;;;;;;2.93;2.13;;;;;;;;;;5015767;28;20231;-78
2023/05/19 02:28:19;;;;;;;3.47;2.27;;;;;;;;;;4998807;28;20240;-77
2023/05/19 02:30:47;;;;;;;3.73;2.40;;;;;;;;;;5011025;28;20223;-77
2023/05/19 02:33:12;;;;;;;6.47;2.97;;;;;;;;;;4991880;28;20239;-77
2023/05/19 02:35:38;;;;;;;5.07;2.47;;;;;;;;;;4978627;28;20210;-77
2023/05/19 02:38:05;;;;;;;3.73;2.10;;;;;;;;;;5004875;28;20724;-77
2023/05/19 02:40:36;;;;;;;4.30;2.60;;;;;;;;;;5027090;28;20247;-77
2023/05/19 02:43:02;;;;;;;4.77;2.50;;;;;;;;;;4996053;28;20265;-77
2023/05/19 02:45:30;;;;;;;4.30;2.10;;;;;;;;;;5012502;28;20220;-76
2023/05/19 02:47:58;;;;;;;3.60;2.40;;;;;;;;;;4996610;28;20246;-75
2023/05/19 02:50:26;;;;;;;6.60;2.60;;;;;;;;;;5010997;28;20255;-77
2023/05/19 02:52:52;;;;;;;4.97;2.50;;;;;;;;;;5033118;28;20646;-76
2023/05/19 02:55:18;;;;;;;4.13;2.40;;;;;;;;;;4996057;28;20223;-76
2023/05/19 02:57:44;;;;;;;5.63;2.70;;;;;;;;;;5012043;28;20220;-77
2023/05/19 03:00:10;;;;;;;4.10;2.53;;;;;;;;;;5006636;28;20227;-77
2023/05/19 03:02:42;;;;;;;5.00;2.63;;;;;;;;;;5028333;28;20227;-76
2023/05/19 03:05:09;;;;;;;6.13;2.70;;;;;;;;;;5015423;28;20216;-76
2023/05/19 03:07:37;;;;;;;4.27;2.37;;;;;;;;;;5001782;28;20251;-76
2023/05/19 03:10:03;;;;;;;4.97;2.73;;;;;;;;;;5015238;28;20217;-76
2023/05/19 03:12:28;;;;;;;2.93;2.23;;;;;;;;;;4982174;28;20223;-75
2023/05/19 03:14:54;;;;;;;4.77;2.53;;;;;;;;;;5010062;28;20216;-76
2023/05/19 03:17:24;;;;;;;5.00;2.30;;;;;;;;;;5018948;28;20223;-76
2023/05/19 03:19:50;;;;;;;3.90;2.33;;;;;;;;;;5001497;28;20223;-76
2023/05/19 03:22:17;;;;;;;3.87;2.27;;;;;;;;;;5013044;28;20230;-76
2023/05/19 03:24:45;;;;;;;6.47;2.83;;;;;;;;;;4979631;28;20318;-77
2023/05/19 03:27:13;;;;;;;3.37;2.50;;;;;;;;;;5014040;28;20228;-76
2023/05/19 03:29:38;;;;;;;5.63;2.40;;;;;;;;;;4998510;28;20220;-77
2023/05/19 03:32:04;;;;;;;5.47;2.80;;;;;;;;;;5012960;28;20217;-78
2023/05/19 03:34:34;;;;;;;3.73;2.60;;;;;;;;;;5024851;28;20231;-78
2023/05/19 03:37:00;;;;;;;4.37;2.53;;;;;;;;;;5038238;28;20224;-78
2023/05/19 03:39:29;;;;;;;3.73;2.77;;;;;;;;;;5025569;28;20209;-77
2023/05/19 03:41:57;;;;;;;5.00;2.77;;;;;;;;;;5028087;28;20710;-78
2023/05/19 03:44:24;;;;;;;5.30;2.70;;;;;;;;;;5002110;28;20246;-76
2023/05/19 03:46:55;;;;;;;3.23;2.20;;;;;;;;;;5014067;28;20231;-76
2023/05/19 03:49:40;;;;;;;3.73;2.47;;;;;;;;;;5027073;28;20244;-77
2023/05/19 03:52:24;;;;;;;3.90;2.30;;;;;;;;;;5031128;28;20232;-77
2023/05/19 03:55:01;;;;;;;4.70;2.60;;;;;;;;;;4987524;28;20247;-76
2023/05/19 03:57:28;;;;;;;4.67;2.57;;;;;;;;;;4998127;28;20357;-77
2023/05/19 03:59:58;;;;;;;6.27;2.57;;;;;;;;;;5011520;28;20299;-76
2023/05/19 04:02:30;;;;;;;3.50;2.47;;;;;;;;;;4983653;28;20229;-76
2023/05/19 04:05:03;;;;;;;7.27;2.40;;;;;;;;;;4997239;28;20644;-77
2023/05/19 04:07:30;;;;;;;6.03;2.43;;;;;;;;;;5013625;28;20224;-77
2023/05/19 04:09:56;;;;;;;2.90;2.40;;;;;;;;;;5020875;28;20343;-78
2023/05/19 04:12:23;;;;;;;4.87;3.30;;;;;;;;;;5001876;28;20215;-77
2023/05/19 04:14:51;;;;;;;4.33;2.40;;;;;;;;;;5004152;28;20220;-77
2023/05/19 04:17:25;;;;;;;6.43;2.90;;;;;;;;;;5021816;28;20302;-77
2023/05/19 04:19:53;;;;;;;4.63;2.23;;;;;;;;;;4993512;28;20807;-77
2023/05/19 04:22:23;;;;;;;4.93;2.47;;;;;;;;;;4999821;28;20213;-77
2023/05/19 04:24:51;;;;;;;4.27;2.33;;;;;;;;;;5000918;28;20644;-77
2023/05/19 04:27:21;;;;;;;4.13;2.37;;;;;;;;;;5013495;28;20708;-77
2023/05/19 04:29:48;;;;;;;4.43;2.27;;;;;;;;;;5001141;28;20299;-77
2023/05/19 04:32:16;;;;;;;4.63;2.70;;;;;;;;;;4985349;28;20725;-77
2023/05/19 04:34:44;;;;;;;4.60;2.33;;;;;;;;;;5015842;28;20222;-77
2023/05/19 04:37:12;;;;;;;3.47;2.30;;;;;;;;;;5000918;28;20278;-77
2023/05/19 04:39:44;;;;;;;4.73;2.43;;;;;;;;;;5009740;28;20228;-77
2023/05/19 04:42:18;;;;;;;4.93;2.60;;;;;;;;;;5002397;28;20220;-77
2023/05/19 04:44:48;;;;;;;3.77;2.70;;;;;;;;;;5018464;28;20238;-77
2023/05/19 04:47:16;;;;;;;3.60;2.20;;;;;;;;;;4996505;28;20220;-77
2023/05/19 04:49:42;;;;;;;5.30;2.40;;;;;;;;;;4995285;28;20274;-76
2023/05/19 04:52:12;;;;;;;2.90;2.47;;;;;;;;;;5012877;28;20657;-77
2023/05/19 04:54:43;;;;;;;5.00;2.60;;;;;;;;;;5038770;28;20225;-77
2023/05/19 04:57:11;;;;;;;2.77;1.97;;;;;;;;;;5010424;28;20654;-77
2023/05/19 04:59:41;;;;;;;3.50;2.23;;;;;;;;;;5014473;28;20701;-77
2023/05/19 05:02:07;;;;;;;4.50;2.20;;;;;;;;;;4996817;28;20248;-76
2023/05/19 05:04:34;;;;;;;4.20;2.30;;;;;;;;;;5033943;28;20694;-76
2023/05/19 05:07:02;;;;;;;4.43;2.10;;;;;;;;;;5001542;28;20253;-77
2023/05/19 05:09:28;;;;;;;3.50;2.33;;;;;;;;;;5001196;28;20648;-76
2023/05/19 05:11:58;;;;;;;5.17;2.50;;;;;;;;;;5013914;28;20695;-76
2023/05/19 05:14:26;;;;;;;3.93;2.53;;;;;;;;;;4997151;28;20227;-77
2023/05/19 05:16:54;;;;;;;4.43;2.60;;;;;;;;;;5012501;28;20224;-76
2023/05/19 05:19:22;;;;;;;6.17;2.70;;;;;;;;;;5030224;28;20313;-77
2023/05/19 05:21:48;;;;;;;4.10;2.40;;;;;;;;;;5016895;28;20609;-77
2023/05/19 05:24:17;;;;;;;5.03;2.40;;;;;;;;;;4979464;28;20217;-76
2023/05/19 05:26:48;;;;;;;4.33;2.30;;;;;;;;;;4996716;28;20228;-77
2023/05/19 05:29:14;;;;;;;4.90;2.30;;;;;;;;;;5006224;28;20227;-76
2023/05/19 05:31:42;;;;;;;3.03;2.23;;;;;;;;;;5022062;28;20586;-76
2023/05/19 05:34:11;;;;;;;4.43;2.50;;;;;;;;;;5013889;28;20270;-77
2023/05/19 05:36:36;;;;;;;4.43;2.33;;;;;;;;;;4985894;28;20239;-76
2023/05/19 05:39:04;;;;;;;3.87;2.20;;;;;;;;;;5038702;28;20208;-77
2023/05/19 05:41:35;;;;;;;5.10;2.27;;;;;;;;;;4997473;28;20273;-76
2023/05/19 05:44:09;;;;;;;4.87;2.10;;;;;;;;;;5011543;28;20220;-76
2023/05/19 05:46:41;;;;;;;3.70;2.20;;;;;;;;;;5006577;28;20228;-77
2023/05/19 05:49:08;;;;;;;3.00;2.00;;;;;;;;;;5018392;28;20562;-77
2023/05/19 05:51:34;;;;;;;3.73;2.00;;;;;;;;;;5009154;28;20756;-77
2023/05/19 05:54:02;;;;;;;3.57;2.03;;;;;;;;;;5014717;28;20266;-77
2023/05/19 05:56:36;;;;;;;2.47;1.57;;;;;;;;;;4998469;28;20702;-77
2023/05/19 05:59:08;;;;;;;5.80;2.03;;;;;;;;;;5022380;28;20593;-77
2023/05/19 06:01:34;;;;;;;2.00;1.80;;;;;;;;;;4983748;28;20234;-76
2023/05/19 06:04:03;;;;;;;3.53;2.07;;;;;;;;;;5012618;28;20708;-76
2023/05/19 06:06:30;;;;;;;3.07;1.87;;;;;;;;;;5017899;28;20753;-77
2023/05/19 06:08:58;;;;;;;3.73;1.77;;;;;;;;;;5013189;28;20220;-76
2023/05/19 06:11:27;;;;;;;3.33;1.80;;;;;;;;;;5003695;28;20711;-77
2023/05/19 06:13:57;;;;;;;3.20;1.60;;;;;;;;;;5014065;28;20220;-77
2023/05/19 06:16:50;;;;;;;3.03;1.83;;;;;;;;;;5005580;28;20224;-77
2023/05/19 06:19:18;;;;;;;4.78;2.00;;;;;;;;;;5018976;28;20221;-79
2023/05/19 06:21:44;;;;;;;5.68;2.00;;;;;;;;;;4998432;28;20767;-76
2023/05/19 06:24:13;;;;;;;3.70;1.67;;;;;;;;;;5004425;28;20220;-77
2023/05/19 06:26:44;;;;;;;3.30;1.50;;;;;;;;;;4993253;28;20225;-77
2023/05/19 06:29:11;;;;;;;2.28;1.70;;;;;;;;;;5033473;28;20223;-77
2023/05/19 06:31:45;;;;;;;3.42;1.50;;;;;;;;;;5020422;28;20339;-77
2023/05/19 06:34:16;;;;;;;2.80;1.55;;;;;;;;;;4990558;28;20232;-76
2023/05/19 06:36:43;;;;;;;3.08;1.35;;;;;;;;;;5012026;28;20232;-76
2023/05/19 06:39:09;;;;;;;2.00;1.42;;;;;;;;;;5032209;28;20216;-77
2023/05/19 06:41:38;;;;;;;2.65;1.50;;;;;;;;;;5001065;28;20730;-77
2023/05/19 06:44:05;;;;;;;3.30;1.30;;;;;;;;;;5013762;28;20705;-77
2023/05/19 06:46:35;;;;;;;2.55;1.48;;;;;;;;;;5006342;28;20228;-77
2023/05/19 06:49:02;;;;;;;4.00;1.67;;;;;;;;;;5015561;28;20228;-77
2023/05/19 06:51:35;;;;;;;2.45;1.38;;;;;;;;;;5012299;28;20246;-76
2023/05/19 06:54:03;;;;;;;2.40;1.60;;;;;;;;;;5003874;28;20340;-77
2023/05/19 06:56:31;;;;;;;3.60;1.50;;;;;;;;;;4994573;28;20293;-76
2023/05/19 06:58:59;;;;;;;3.15;1.58;;;;;;;;;;4979410;28;20216;-75
2023/05/19 07:01:33;;;;;;;3.17;1.77;;;;;;;;;;5013946;28;20295;-77
2023/05/19 07:04:01;;;;;;;2.13;1.40;;;;;;;;;;4984367;28;20228;-77
2023/05/19 07:06:26;;;;;;;2.28;1.42;;;;;;;;;;5017194;28;20298;-76
2023/05/19 07:08:53;;;;;;;2.83;1.63;;;;;;;;;;4997617;28;20216;-75
2023/05/19 07:11:18;;;;;;;2.88;1.70;;;;;;;;;;4996694;28;20738;-76
2023/05/19 07:13:45;;;;;;;2.60;1.55;;;;;;;;;;5014656;28;20226;-76
2023/05/19 07:16:15;;;;;;;1.50;1.40;;;;;;;;;;5026632;28;20220;-76
2023/05/19 07:18:43;;;;;;;3.03;1.98;;;;;;;;;;4993683;28;20238;-76
2023/05/19 07:21:13;;;;;;;4.20;1.60;;;;;;;;;;4995748;28;20226;-75
2023/05/19 07:23:41;;;;;;;2.08;1.58;;;;;;;;;;5010936;28;20221;-76
2023/05/19 07:26:17;;;;;;;4.85;2.90;;;;;;;;;;5033847;28;20224;-76
2023/05/19 07:28:47;;;;;;;2.00;1.45;;;;;;;;;;5034186;28;20704;-75
2023/05/19 07:31:18;;;;;;;2.15;1.60;;;;;;;;;;5047190;28;20813;-76
2023/05/19 07:33:46;;;;;;;2.40;1.30;;;;;;;;;;5000866;28;20250;-76
2023/05/19 07:36:15;;;;;;;3.70;1.75;;;;;;;;;;4998038;28;20212;-76
2023/05/19 07:38:40;;;;;;;2.33;1.38;;;;;;;;;;5030474;28;20221;-76
2023/05/19 07:41:10;;;;;;;2.67;1.50;;;;;;;;;;5002013;28;20219;-77
2023/05/19 07:43:38;;;;;;;2.60;1.65;;;;;;;;;;5051193;22;20206;-80
2023/05/19 07:46:04;;;;;;;2.33;1.50;;;;;;;;;;5000860;28;20224;-80
2023/05/19 07:48:30;;;;;;;2.20;1.20;;;;;;;;;;4966638;28;20661;-78
2023/05/19 07:50:57;;;;;;;2.00;1.23;;;;;;;;;;4992678;28;20305;-80
2023/05/19 07:53:23;;;;;;;1.95;1.10;;;;;;;;;;4995211;28;20698;-78
2023/05/19 07:55:49;;;;;;;5.03;1.58;;;;;;;;;;4995364;28;20699;-79
2023/05/19 07:58:14;;;;;;;1.83;1.25;;;;;;;;;;4974829;28;20339;-79
2023/05/19 08:00:41;;;;;;;1.67;1.08;;;;;;;;;;4956960;28;20221;-80
2023/05/19 08:03:09;;;;;;;1.35;0.90;;;;;;;;;;4982331;28;20237;-81
2023/05/19 08:05:37;;;;;;;2.03;1.02;;;;;;;;;;4977520;28;20231;-79
2023/05/19 08:08:03;;;;;;;1.83;1.00;;;;;;;;;;4971545;28;20308;-80
2023/05/19 08:10:28;;;;;;;1.73;1.20;;;;;;;;;;4970752;28;20274;-80
2023/05/19 08:12:54;;;;;;;3.08;1.00;;;;;;;;;;5008899;28;20354;-80
2023/05/19 08:15:19;;;;;;;1.63;1.20;;;;;;;;;;4990012;28;20212;-79
2023/05/19 08:17:47;;;;;;;1.77;1.10;;;;;;;;;;4990521;28;20225;-80
2023/05/19 08:20:13;;;;;;;3.13;1.05;;;;;;;;;;4991012;28;20933;-79
2023/05/19 08:22:43;;;;;;;2.03;1.10;;;;;;;;;;4994587;28;20229;-77
2023/05/19 08:25:10;;;;;;;2.47;1.33;;;;;;;;;;4973829;28;20224;-78
2023/05/19 08:27:36;;;;;;;2.30;1.13;;;;;;;;;;4972857;28;20597;-77
2023/05/19 08:30:04;;;;;;;2.90;1.13;;;;;;;;;;4994562;28;20229;-80
2023/05/19 08:32:29;;;;;;;3.95;1.10;;;;;;;;;;4998716;28;20228;-78
2023/05/19 08:34:57;;;;;;;1.65;1.17;;;;;;;;;;5001082;28;20231;-78
2023/05/19 08:37:22;;;;;;;2.08;1.10;;;;;;;;;;5009461;28;20286;-78
2023/05/19 08:39:48;;;;;;;1.95;1.10;;;;;;;;;;5029712;28;20235;-76
2023/05/19 08:42:13;;;;;;;1.90;1.25;;;;;;;;;;4982581;28;20232;-78
2023/05/19 08:44:40;;;;;;;1.60;1.10;;;;;;;;;;4999549;28;20256;-77
2023/05/19 08:47:12;;;;;;;2.20;1.38;;;;;;;;;;5009734;28;20635;-79
2023/05/19 08:49:45;;;;;;;2.13;1.10;;;;;;;;;;5006060;28;20240;-78
2023/05/19 08:52:29;;;;;;;2.55;1.30;;;;;;;;;;4995851;28;20232;-80
2023/05/19 08:55:03;;;;;;;2.63;1.42;;;;;;;;;;5004441;28;20612;-79
2023/05/19 08:57:29;;;;;;;2.38;1.40;;;;;;;;;;5021484;28;20282;-78
2023/05/19 08:59:54;;;;;;;1.67;1.10;;;;;;;;;;5014133;28;20236;-77
2023/05/19 09:02:20;;;;;;;1.30;1.20;;;;;;;;;;5015539;28;20229;-79
2023/05/19 09:04:46;;;;;;;1.80;1.25;;;;;;;;;;5026207;28;20224;-75
2023/05/19 09:07:15;;;;;;;2.20;1.30;;;;;;;;;;5007091;28;20291;-76
2023/05/19 09:09:42;;;;;;;2.58;1.20;;;;;;;;;;4995782;28;20243;-79
2023/05/19 09:12:10;;;;;;;2.63;1.08;;;;;;;;;;4993620;28;20235;-80
2023/05/19 09:14:36;;;;;;;1.58;1.20;;;;;;;;;;5002820;28;20738;-78
2023/05/19 09:17:02;;;;;;;2.72;1.35;;;;;;;;;;5011348;28;20323;-78
2023/05/19 09:19:28;;;;;;;2.13;1.25;;;;;;;;;;5001257;28;20293;-78
2023/05/19 09:22:00;;;;;;;1.70;1.20;;;;;;;;;;5013554;28;20224;-79
2023/05/19 09:24:25;;;;;;;1.50;1.00;;;;;;;;;;4997948;28;20220;-80
2023/05/19 09:26:52;;;;;;;1.65;1.02;;;;;;;;;;4993273;28;20216;-80
2023/05/19 09:29:22;;;;;;;2.05;1.10;;;;;;;;;;4996686;28;20397;-80
2023/05/19 09:31:59;;;;;;;1.73;1.10;;;;;;;;;;5014134;28;20225;-79
2023/05/19 09:34:27;;;;;;;2.90;0.80;;;;;;;;;;4990783;28;20239;-79
2023/05/19 09:36:52;;;;;;;2.97;1.10;;;;;;;;;;5004292;28;20220;-79
2023/05/19 09:39:19;;;;;;;2.50;0.90;;;;;;;;;;5010623;28;20228;-80
2023/05/19 09:41:45;;;;;;;1.25;0.98;;;;;;;;;;5007328;28;20712;-78
2023/05/19 09:44:23;;;;;;;1.88;0.90;;;;;;;;;;5012521;28;20262;-80
2023/05/19 09:47:04;;;;;;;2.42;0.90;;;;;;;;;;4996959;28;20250;-81
2023/05/19 09:49:30;;;;;;;2.00;0.90;;;;;;;;;;5011782;28;20208;-79
2023/05/19 09:51:59;;;;;;;1.55;0.80;;;;;;;;;;5005952;28;20228;-80
2023/05/19 09:54:30;;;;;;;1.15;0.80;;;;;;;;;;4987416;28;20225;-79
2023/05/19 09:57:00;;;;;;;1.83;1.05;;;;;;;;;;4975234;28;20282;-79
2023/05/19 09:59:26;;;;;;;2.33;1.20;;;;;;;;;;5000905;28;20216;-77
2023/05/19 10:01:55;;;;;;;2.05;1.02;;;;;;;;;;5009159;28;20785;-78
2023/05/19 10:04:31;;;;;;;1.55;0.93;;;;;;;;;;5004368;28;20228;-78
2023/05/19 10:06:59;;;;;;;2.97;1.00;;;;;;;;;;5006351;28;20572;-78
2023/05/19 10:09:25;;;;;;;1.83;1.00;;;;;;;;;;5020780;28;20243;-78
2023/05/19 10:11:52;;;;;;;1.33;1.00;;;;;;;;;;5003824;28;20229;-76
2023/05/19 10:14:23;;;;;;;1.15;0.95;;;;;;;;;;5019475;28;20350;-78
2023/05/19 10:16:53;;;;;;;1.42;0.82;;;;;;;;;;5001773;28;20225;-77
2023/05/19 10:19:30;;;;;;;1.35;0.73;;;;;;;;;;5014561;28;20224;-80
2023/05/19 10:21:56;;;;;;;1.77;0.95;;;;;;;;;;5003637;28;20217;-77
2023/05/19 10:24:25;;;;;;;2.70;0.90;;;;;;;;;;4977541;28;20492;-78
2023/05/19 10:26:58;;;;;;;2.85;0.90;;;;;;;;;;4997959;28;20317;-79
2023/05/19 10:29:27;;;;;;;1.33;1.00;;;;;;;;;;5013389;28;20240;-77
2023/05/19 10:31:54;;;;;;;1.20;1.10;;;;;;;;;;5013436;28;20231;-77
2023/05/19 10:34:36;;;;;;;2.05;0.93;;;;;;;;;;4993713;28;20822;-78
2023/05/19 10:37:16;;;;;;;0.90;0.80;;;;;;;;;;5012598;28;20224;-78
2023/05/19 10:39:43;;;;;;;0.80;0.80;;;;;;;;;;5009856;28;20251;-76
2023/05/19 10:42:18;;;;;;;0.70;0.70;;;;;;;;;;5012307;28;20271;-77
2023/05/19 10:44:46;;;;;;;1.13;1.00;;;;;;;;;;5013662;28;20224;-76
2023/05/19 10:47:12;;;;;;;0.93;0.80;;;;;;;;;;5026621;28;20236;-78
2023/05/19 10:49:37;;;;;;;0.90;0.90;;;;;;;;;;4995751;28;20246;-79
2023/05/19 10:52:03;;;;;;;1.13;1.00;;;;;;;;;;4996399;28;20224;-79
2023/05/19 10:54:39;;;;;;;2.67;0.90;;;;;;;;;;4995135;28;20239;-78
2023/05/19 10:57:05;;;;;;;1.92;0.88;;;;;;;;;;5011293;28;20224;-78
2023/05/19 10:59:33;;;;;;;2.15;1.00;;;;;;;;;;4976693;28;20228;-79
2023/05/19 11:02:09;;;;;;;3.97;1.10;;;;;;;;;;5008866;28;20231;-79
2023/05/19 11:04:52;;;;;;;1.08;1.00;;;;;;;;;;4997164;28;20312;-79
2023/05/19 11:07:19;;;;;;;1.15;1.05;;;;;;;;;;5012790;28;20228;-78
2023/05/19 11:09:48;;;;;;;1.08;0.90;;;;;;;;;;5014735;28;20240;-78
2023/05/19 11:12:14;;;;;;;1.73;1.00;;;;;;;;;;5004342;28;20248;-78
2023/05/19 11:14:40;;;;;;;2.30;0.90;;;;;;;;;;4993825;28;20227;-78
2023/05/19 11:17:07;;;;;;;1.65;1.20;;;;;;;;;;5012855;28;20227;-78
2023/05/19 11:19:36;;;;;;;1.65;1.20;;;;;;;;;;4998891;28;20595;-77
2023/05/19 11:22:13;;;;;;;1.55;1.00;;;;;;;;;;4973994;28;20220;-79
2023/05/19 11:24:43;;;;;;;2.35;1.00;;;;;;;;;;5006643;28;20258;-77
2023/05/19 11:27:27;;;;;;;1.48;0.80;;;;;;;;;;4993166;28;20287;-77
2023/05/19 11:29:54;;;;;;;1.48;1.05;;;;;;;;;;5006197;28;20217;-78
2023/05/19 11:32:21;;;;;;;2.08;1.00;;;;;;;;;;4996754;28;20240;-78
2023/05/19 11:34:48;;;;;;;2.92;1.10;;;;;;;;;;4990608;28;20224;-78
2023/05/19 11:37:16;;;;;;;2.50;1.00;;;;;;;;;;5005150;28;20236;-79
2023/05/19 11:39:42;;;;;;;1.63;1.20;;;;;;;;;;5003310;28;20275;-79
2023/05/19 11:42:09;;;;;;;1.90;1.00;;;;;;;;;;5015322;28;21129;-80
2023/05/19 11:44:34;;;;;;;0.85;0.80;;;;;;;;;;5015959;28;20220;-77
2023/05/19 11:47:00;;;;;;;1.85;1.08;;;;;;;;;;4978894;28;20243;-77
2023/05/19 11:49:32;;;;;;;1.58;1.10;;;;;;;;;;5020702;28;20220;-77
2023/05/19 11:52:01;;;;;;;1.20;1.00;;;;;;;;;;5018989;28;20225;-77
2023/05/19 11:54:31;;;;;;;1.58;1.23;;;;;;;;;;5012510;28;20228;-78
2023/05/19 11:57:00;;;;;;;1.13;0.82;;;;;;;;;;5004708;28;20224;-77
2023/05/19 11:59:32;;;;;;;1.00;0.90;;;;;;;;;;5003871;28;20216;-77
2023/05/19 12:02:19;;;;;;;1.10;0.95;;;;;;;;;;4996103;28;20220;-77
2023/05/19 12:04:48;;;;;;;1.70;1.20;;;;;;;;;;5030465;28;20248;-79
2023/05/19 12:07:31;;;;;;;1.73;1.10;;;;;;;;;;5009458;28;20228;-77
2023/05/19 12:09:57;;;;;;;1.05;0.95;;;;;;;;;;4993611;28;20232;-78
2023/05/19 12:12:25;;;;;;;1.73;1.10;;;;;;;;;;4964100;28;20259;-77
2023/05/19 12:14:51;;;;;;;2.28;1.23;;;;;;;;;;5016647;28;20301;-77
2023/05/19 12:17:18;;;;;;;1.52;1.00;;;;;;;;;;5003352;28;20250;-76
2023/05/19 12:19:46;;;;;;;1.67;0.90;;;;;;;;;;5017961;28;20223;-78
2023/05/19 12:22:14;;;;;;;1.55;1.25;;;;;;;;;;5009891;28;20219;-79
2023/05/19 12:24:40;;;;;;;3.75;1.17;;;;;;;;;;5016029;28;20236;-77
2023/05/19 12:27:11;;;;;;;1.55;0.90;;;;;;;;;;4991456;28;20232;-79
2023/05/19 12:29:37;;;;;;;1.13;0.98;;;;;;;;;;5000824;28;20224;-79
2023/05/19 12:32:03;;;;;;;1.10;1.00;;;;;;;;;;4984532;28;20220;-81
2023/05/19 12:34:30;;;;;;;2.90;1.10;;;;;;;;;;4968590;28;20231;-80
2023/05/19 12:36:56;;;;;;;1.52;1.10;;;;;;;;;;4999865;28;20220;-79
2023/05/19 12:39:23;;;;;;;1.48;1.00;;;;;;;;;;4992415;28;20762;-78
2023/05/19 12:41:48;;;;;;;1.38;0.90;;;;;;;;;;4983223;28;20216;-79
2023/05/19 12:44:17;;;;;;;1.33;1.20;;;;;;;;;;4998159;28;20217;-80
2023/05/19 12:46:43;;;;;;;2.22;1.17;;;;;;;;;;4977112;28;20224;-80
2023/05/19 12:49:09;;;;;;;1.90;1.02;;;;;;;;;;5027568;28;20212;-80
2023/05/19 12:51:37;;;;;;;1.30;1.00;;;;;;;;;;5009125;28;20232;-76
2023/05/19 12:54:03;;;;;;;1.00;0.90;;;;;;;;;;5015446;28;20224;-80
2023/05/19 12:56:29;;;;;;;1.42;0.98;;;;;;;;;;4974333;28;20295;-78
2023/05/19 12:58:54;;;;;;;1.38;1.10;;;;;;;;;;5025996;28;20324;-80
2023/05/19 13:01:21;;;;;;;2.65;1.02;;;;;;;;;;5024451;28;20216;-78
2023/05/19 13:03:48;;;;;;;0.93;0.93;;;;;;;;;;4990361;28;20293;-79
2023/05/19 13:06:17;;;;;;;1.15;0.90;;;;;;;;;;5008227;28;20260;-79
2023/05/19 13:08:42;;;;;;;0.90;0.90;;;;;;;;;;5006968;28;20228;-78
2023/05/19 13:11:10;;;;;;;1.48;1.00;;;;;;;;;;4987753;28;20216;-77
2023/05/19 13:13:36;;;;;;;1.15;0.80;;;;;;;;;;5008478;28;20289;-78
2023/05/19 13:16:04;;;;;;;0.82;0.80;;;;;;;;;;4996166;28;20220;-77
2023/05/19 13:18:31;;;;;;;1.40;0.93;;;;;;;;;;5007444;28;20250;-78
2023/05/19 13:20:56;;;;;;;1.17;0.90;;;;;;;;;;4990651;28;20212;-79
2023/05/19 13:23:22;;;;;;;1.17;1.08;;;;;;;;;;5002274;28;20280;-78
2023/05/19 13:25:49;;;;;;;1.10;1.00;;;;;;;;;;5005117;28;20283;-77
2023/05/19 13:28:15;;;;;;;1.15;0.90;;;;;;;;;;5000919;28;20315;-77
2023/05/19 13:31:03;;;;;;;1.30;1.10;;;;;;;;;;5004821;28;20628;-80
2023/05/19 13:33:28;;;;;;;2.28;1.08;;;;;;;;;;5018305;28;20287;-78
2023/05/19 13:35:56;;;;;;;0.90;0.90;;;;;;;;;;4998410;28;20221;-78
2023/05/19 13:38:22;;;;;;;3.08;1.05;;;;;;;;;;5004166;28;20227;-80
2023/05/19 13:40:50;;;;;;;1.20;1.10;;;;;;;;;;4969360;28;20307;-79
2023/05/19 13:43:15;;;;;;;1.38;1.27;;;;;;;;;;5023401;28;20952;-79
2023/05/19 13:45:43;;;;;;;1.90;1.13;;;;;;;;;;5006147;28;20338;-80
2023/05/19 13:48:09;;;;;;;0.98;0.95;;;;;;;;;;5006631;28;20224;-77
2023/05/19 13:50:35;;;;;;;1.42;1.08;;;;;;;;;;4992241;28;20221;-80
2023/05/19 13:53:00;;;;;;;1.20;0.90;;;;;;;;;;4996776;28;20254;-79
2023/05/19 13:55:26;;;;;;;1.20;1.10;;;;;;;;;;4986901;28;20232;-80
2023/05/19 13:57:52;;;;;;;2.13;1.20;;;;;;;;;;4994815;28;20228;-78
2023/05/19 14:00:18;;;;;;;1.40;1.00;;;;;;;;;;5012429;28;20227;-79
2023/05/19 14:02:46;;;;;;;1.10;1.00;;;;;;;;;;5001516;23;20715;-77
2023/05/19 14:05:13;;;;;;;1.10;1.00;;;;;;;;;;5020272;28;20220;-77
2023/05/19 14:07:43;;;;;;;1.35;1.10;;;;;;;;;;5012109;28;20232;-76
2023/05/19 14:10:13;;;;;;;1.90;1.10;;;;;;;;;;5026362;28;20749;-77
2023/05/19 14:12:39;;;;;;;1.10;1.00;;;;;;;;;;4996438;28;20248;-77
2023/05/19 14:15:08;;;;;;;1.60;1.15;;;;;;;;;;4969708;28;20690;-77
2023/05/19 14:17:35;;;;;;;1.83;1.40;;;;;;;;;;4988539;28;20330;-78
2023/05/19 14:20:01;;;;;;;2.33;1.60;;;;;;;;;;5006921;28;20220;-76
2023/05/19 14:22:31;;;;;;;2.42;1.20;;;;;;;;;;5005718;28;20247;-77
2023/05/19 14:25:00;;;;;;;3.55;1.70;;;;;;;;;;4993150;28;20311;-76
2023/05/19 14:27:30;;;;;;;3.35;2.90;;;;;;;;;;4999636;28;20697;-77
2023/05/19 14:29:58;;;;;;;5.45;4.95;;;;;;;;;;4994614;28;20722;-76
2023/05/19 14:32:25;;;;;;;4.10;3.70;;;;;;;;;;5002487;28;20224;-76
2023/05/19 14:34:56;;;;;;;5.65;4.88;;;;;;;;;;4988062;28;20225;-75
2023/05/19 14:37:27;;;;;;;3.22;2.92;;;;;;;;;;4992760;28;20724;-77
2023/05/19 14:39:58;;;;;;;2.53;2.20;;;;;;;;;;5026275;28;20678;-77
2023/05/19 14:42:26;;;;;;;2.47;2.10;;;;;;;;;;5024654;28;20220;-77
2023/05/19 14:44:51;;;;;;;1.40;1.30;;;;;;;;;;4989209;28;20701;-77
2023/05/19 14:47:17;;;;;;;1.75;1.17;;;;;;;;;;4980269;28;20225;-79
2023/05/19 14:49:45;;;;;;;1.55;1.17;;;;;;;;;;4995182;28;20220;-76
2023/05/19 14:52:13;;;;;;;1.33;1.20;;;;;;;;;;5006480;28;20217;-78
2023/05/19 14:54:41;;;;;;;1.90;1.60;;;;;;;;;;4969074;28;20245;-78